Time;durP1;ratioP1;P1;durP2;ratioP2;P2;SDS_P1;SDS_P2;PMS_P1;PMS_P2;Temp;Humidity;BMP_temperature;BMP_pressure;BME280_temperature;BME280_humidity;BME280_pressure;Samples;Min_cycle;Max_cycle;Signal;HPM_P1;HPM_P2
2021/12/20 00:00:26;;;;;;;29.13;6.23;;;;;;;3.39;86.35;101782.06;5048938;28;20238;-82
2021/12/20 00:02:55;;;;;;;23.67;4.80;;;;;;;3.36;86.03;101778.59;5045780;28;20212;-81
2021/12/20 00:05:22;;;;;;;26.80;5.63;;;;;;;3.32;86.35;101776.91;5044254;28;20216;-82
2021/12/20 00:07:49;;;;;;;21.97;5.23;;;;;;;3.28;85.96;101786.59;5046673;28;20211;-81
2021/12/20 00:10:18;;;;;;;27.87;5.67;;;;;;;3.25;86.49;101778.75;5048090;28;20730;-81
2021/12/20 00:12:45;;;;;;;30.50;5.27;;;;;;;3.21;86.24;101790.25;5041881;28;20202;-83
2021/12/20 00:15:12;;;;;;;34.13;5.73;;;;;;;3.21;86.94;101789.38;5045408;28;20285;-82
2021/12/20 00:17:39;;;;;;;27.10;4.83;;;;;;;3.18;86.29;101786.78;5044884;28;20202;-82
2021/12/20 00:20:07;;;;;;;29.97;5.23;;;;;;;3.17;86.55;101785.91;5042010;28;20235;-79
2021/12/20 00:22:33;;;;;;;25.07;5.90;;;;;;;3.15;87.11;101787.69;5045211;28;20211;-82
2021/12/20 00:25:00;;;;;;;30.27;5.80;;;;;;;3.13;86.47;101784.22;5045499;28;20700;-82
2021/12/20 00:27:28;;;;;;;25.60;5.13;;;;;;;3.09;86.66;101777.25;5045396;28;20209;-83
2021/12/20 00:29:54;;;;;;;25.87;5.40;;;;;;;3.06;87.27;101790.44;5043354;28;20226;-84
2021/12/20 00:32:21;;;;;;;22.80;5.83;;;;;;;3.04;86.76;101792.25;5043790;28;20214;-83
2021/12/20 00:34:47;;;;;;;28.73;4.97;;;;;;;3.01;87.40;101805.44;5046950;28;20236;-83
2021/12/20 00:42:41;;;;;;;21.63;4.63;;;;;;;2.90;87.05;101799.44;5046717;28;20201;-82
2021/12/20 00:45:09;;;;;;;25.07;4.60;;;;;;;2.86;87.47;101797.78;5051278;28;20268;-83
2021/12/20 00:47:35;;;;;;;19.13;4.93;;;;;;;2.83;87.25;101793.41;5051359;28;20206;-83
2021/12/20 00:50:02;;;;;;;24.73;4.57;;;;;;;2.79;87.75;101797.84;5052654;28;20721;-79
2021/12/20 00:52:29;;;;;;;27.40;5.33;;;;;;;2.75;87.62;101800.53;5050084;28;20240;-82
2021/12/20 00:54:55;;;;;;;23.67;5.20;;;;;;;2.70;86.82;101800.56;5050350;28;20225;-79
2021/12/20 00:57:22;;;;;;;18.60;4.57;;;;;;;2.66;87.46;101812.03;5051792;28;20227;-82
2021/12/20 00:59:50;;;;;;;25.70;5.90;;;;;;;2.60;87.51;101812.09;5046353;28;20259;-83
2021/12/20 01:02:16;;;;;;;24.67;4.70;;;;;;;2.56;87.09;101813.03;5044579;28;20209;-84
2021/12/20 01:04:43;;;;;;;32.70;5.37;;;;;;;2.55;87.21;101815.66;5044139;28;20697;-83
2021/12/20 01:07:10;;;;;;;23.37;5.67;;;;;;;2.51;86.97;101814.00;5049975;28;20210;-83
2021/12/20 01:09:37;;;;;;;25.87;5.20;;;;;;;2.48;87.81;101816.66;5050439;28;20213;-83
2021/12/20 01:12:06;;;;;;;25.93;5.00;;;;;;;2.47;87.22;101828.06;5052043;28;20282;-80
2021/12/20 01:14:36;;;;;;;19.77;4.27;;;;;;;2.43;87.31;101829.84;5052630;28;20226;-83
2021/12/20 01:17:05;;;;;;;27.27;5.13;;;;;;;2.41;87.69;101821.97;5058900;28;20229;-84
2021/12/20 01:19:33;;;;;;;28.97;5.97;;;;;;;2.38;87.13;101829.00;5054939;28;20291;-84
2021/12/20 01:21:59;;;;;;;12.63;4.07;;;;;;;2.31;87.03;101825.59;5055743;28;20205;-84
2021/12/20 01:24:26;;;;;;;23.37;4.70;;;;;;;2.25;87.78;101830.91;5055376;28;20202;-83
2021/12/20 01:26:52;;;;;;;31.20;5.83;;;;;;;2.21;87.29;101823.94;5055119;28;20220;-83
2021/12/20 01:29:19;;;;;;;18.90;4.10;;;;;;;2.18;87.65;101826.59;5056206;28;20308;-82
2021/12/20 01:31:46;;;;;;;18.90;5.10;;;;;;;2.14;87.37;101826.66;5056185;28;20212;-81
2021/12/20 01:34:14;;;;;;;27.37;4.83;;;;;;;2.12;87.74;101820.53;5053482;28;20252;-82
2021/12/20 01:36:40;;;;;;;21.47;4.40;;;;;;;2.09;87.34;101819.69;5053222;28;20580;-81
2021/12/20 01:39:07;;;;;;;24.40;4.70;;;;;;;2.08;87.68;101830.22;5061155;28;20232;-82
2021/12/20 01:41:39;;;;;;;19.50;4.30;;;;;;;2.05;87.80;101830.22;5057244;28;20590;-83
2021/12/20 01:44:06;;;;;;;23.03;4.77;;;;;;;2.02;88.19;101827.63;5054363;28;20210;-81
2021/12/20 01:46:33;;;;;;;29.20;5.17;;;;;;;1.99;88.09;101831.16;5051995;28;20215;-79
2021/12/20 01:49:01;;;;;;;31.80;6.60;;;;;;;1.97;88.09;101834.69;5052988;28;20582;-83
2021/12/20 01:51:46;;;;;;;20.67;4.53;;;;;;;1.95;88.49;101836.47;5047568;28;20215;-82
2021/12/20 01:54:14;;;;;;;25.47;4.90;;;;;;;1.94;88.90;101843.47;5049203;28;20198;-81
2021/12/20 01:56:43;;;;;;;18.97;4.00;;;;;;;1.94;88.88;101843.47;5055179;28;20240;-83
2021/12/20 01:59:10;;;;;;;26.30;5.43;;;;;;;1.94;88.50;101845.22;5055238;28;20225;-83
2021/12/20 02:01:37;;;;;;;29.47;5.63;;;;;;;1.93;88.61;101852.25;5047269;28;20206;-83
2021/12/20 02:04:07;;;;;;;27.43;5.40;;;;;;;1.92;88.82;101847.88;5052321;28;20255;-82
2021/12/20 02:06:38;;;;;;;20.60;5.07;;;;;;;1.91;89.14;101846.13;5052516;28;20292;-83
2021/12/20 02:09:08;;;;;;;23.33;5.03;;;;;;;1.88;88.82;101843.53;5052491;28;20221;-84
2021/12/20 02:11:35;;;;;;;23.23;4.80;;;;;;;1.89;88.93;101847.91;5044740;28;20297;-84
2021/12/20 02:14:02;;;;;;;25.20;5.43;;;;;;;1.87;89.34;101849.66;5048748;28;20206;-84
2021/12/20 02:16:29;;;;;;;22.47;4.90;;;;;;;1.85;89.19;101851.41;5050164;28;20233;-83
2021/12/20 02:18:56;;;;;;;26.70;5.07;;;;;;;1.82;89.30;101848.81;5053743;28;20324;-82
2021/12/20 02:21:23;;;;;;;25.50;5.43;;;;;;;1.79;89.14;101850.63;5052706;28;20576;-84
2021/12/20 02:23:50;;;;;;;20.83;4.70;;;;;;;1.77;89.21;101845.38;5048088;28;20284;-79
2021/12/20 02:26:19;;;;;;;27.47;5.27;;;;;;;1.75;89.71;101844.53;5049733;28;20212;-82
2021/12/20 02:28:47;;;;;;;22.27;4.47;;;;;;;1.73;89.58;101841.91;5068003;28;20274;-80
2021/12/20 02:37:13;;;;;;;21.90;4.77;;;;;;;1.67;89.66;101835.81;5048744;28;20991;-82
2021/12/20 02:39:40;;;;;;;25.63;5.43;;;;;;;1.63;90.43;101829.72;5039907;28;20731;-80
2021/12/20 02:42:09;;;;;;;26.67;4.27;;;;;;;1.62;89.59;101837.59;5047342;28;20213;-82
2021/12/20 02:44:36;;;;;;;24.27;5.17;;;;;;;1.60;89.92;101839.38;5054989;28;20304;-82
2021/12/20 02:47:08;;;;;;;17.30;4.80;;;;;;;1.58;90.18;101836.78;5048186;28;20209;-80
2021/12/20 02:49:35;;;;;;;15.83;4.47;;;;;;;1.55;89.96;101835.91;5054769;28;20347;-81
2021/12/20 02:52:05;;;;;;;20.37;4.90;;;;;;;1.53;90.30;101833.28;5044225;28;20205;-82
2021/12/20 02:54:32;;;;;;;21.00;4.00;;;;;;;1.52;90.59;101830.69;5059806;28;20201;-82
2021/12/20 02:56:59;;;;;;;29.17;5.20;;;;;;;1.50;90.76;101824.56;5055420;28;20229;-82
2021/12/20 02:59:26;;;;;;;25.87;6.17;;;;;;;1.50;91.01;101829.81;5055160;28;20218;-82
2021/12/20 03:01:54;;;;;;;23.90;5.30;;;;;;;1.48;90.84;101826.31;5048218;28;20209;-82
2021/12/20 03:04:21;;;;;;;23.17;5.40;;;;;;;1.47;90.36;101833.34;5062545;28;20305;-83
2021/12/20 03:06:50;;;;;;;29.07;5.23;;;;;;;1.45;91.18;101839.47;5046817;28;20205;-82
2021/12/20 03:09:21;;;;;;;23.73;4.70;;;;;;;1.44;90.50;101833.34;5047808;28;20236;-83
2021/12/20 03:11:54;;;;;;;26.40;5.67;;;;;;;1.44;90.77;101828.09;5038101;28;20608;-82
2021/12/20 03:14:26;;;;;;;20.10;5.63;;;;;;;1.43;90.75;101830.75;5049827;28;20194;-82
2021/12/20 03:16:53;;;;;;;24.13;4.03;;;;;;;1.39;91.18;101828.16;5050194;28;20245;-82
2021/12/20 03:19:20;;;;;;;15.77;3.83;;;;;;;1.39;91.54;101827.28;5048044;28;20229;-84
2021/12/20 03:21:46;;;;;;;18.47;4.30;;;;;;;1.37;91.24;101832.53;5041403;28;20205;-85
2021/12/20 03:24:13;;;;;;;20.60;4.63;;;;;;;1.37;91.31;101826.41;5053963;28;20232;-84
2021/12/20 03:26:42;;;;;;;27.33;4.30;;;;;;;1.36;91.18;101835.16;5053251;28;20229;-84
2021/12/20 03:29:09;;;;;;;23.40;4.53;;;;;;;1.35;91.62;101833.44;5040158;28;20226;-83
2021/12/20 03:31:35;;;;;;;17.83;4.70;;;;;;;1.33;91.64;101835.19;5045248;28;20206;-83
2021/12/20 03:34:05;;;;;;;19.43;4.33;;;;;;;1.32;91.34;101833.44;5051701;28;20208;-84
2021/12/20 03:36:32;;;;;;;23.37;4.80;;;;;;;1.31;91.19;101826.44;5045191;28;20225;-84
2021/12/20 03:38:59;;;;;;;23.60;4.93;;;;;;;1.28;91.37;101843.09;5053702;28;20222;-84
2021/12/20 03:44:00;;;;;;;26.57;5.30;;;;;;;1.26;91.43;101829.09;5066718;28;20213;-74
2021/12/20 03:46:27;;;;;;;16.37;4.53;;;;;;;1.25;91.51;101837.00;5066709;28;20217;-73
2021/12/20 03:48:54;;;;;;;22.63;5.83;;;;;;;1.24;91.69;101828.25;5068760;28;20215;-74
2021/12/20 03:51:20;;;;;;;28.13;4.67;;;;;;;1.23;91.92;101831.75;5062355;28;20224;-73
2021/12/20 03:53:56;;;;;;;19.20;4.13;;;;;;;1.22;91.55;101830.03;5069360;28;20193;-72
2021/12/20 03:56:22;;;;;;;35.17;6.17;;;;;;;1.22;91.71;101831.78;5069211;28;20228;-73
2021/12/20 03:58:49;;;;;;;22.67;4.10;;;;;;;1.22;91.89;101839.66;5057678;28;20603;-73
2021/12/20 04:01:17;;;;;;;24.50;4.57;;;;;;;1.21;92.33;101848.41;5061493;28;20209;-74
2021/12/20 04:03:44;;;;;;;26.47;4.20;;;;;;;1.21;92.20;101848.41;5068785;28;20204;-75
2021/12/20 04:06:12;;;;;;;18.83;4.37;;;;;;;1.20;91.78;101847.53;5066989;28;20578;-73
2021/12/20 04:08:39;;;;;;;19.87;4.57;;;;;;;1.20;91.96;101846.66;5057114;28;20201;-74
2021/12/20 04:11:06;;;;;;;19.97;4.70;;;;;;;1.19;91.94;101852.78;5064001;28;20240;-74
2021/12/20 04:13:33;;;;;;;22.83;4.83;;;;;;;1.17;92.05;101855.41;5068796;28;20209;-73
2021/12/20 04:16:00;;;;;;;17.20;4.03;;;;;;;1.18;91.90;101866.78;5071170;28;20228;-73
2021/12/20 04:18:29;;;;;;;16.73;4.17;;;;;;;1.16;92.13;101872.03;5067955;28;20210;-74
2021/12/20 04:20:56;;;;;;;17.47;4.50;;;;;;;1.15;92.08;101859.78;5063590;28;20217;-73
2021/12/20 04:23:22;;;;;;;18.70;4.93;;;;;;;1.15;92.01;101866.78;5070511;28;20662;-75
2021/12/20 04:25:49;;;;;;;17.73;3.80;;;;;;;1.13;92.08;101863.28;5068531;28;20204;-74
2021/12/20 04:28:16;;;;;;;23.67;5.07;;;;;;;1.10;92.25;101860.69;5073162;28;20211;-72
2021/12/20 04:30:43;;;;;;;18.47;4.57;;;;;;;1.08;92.20;101863.31;5068156;28;20216;-72
2021/12/20 04:33:09;;;;;;;21.23;3.60;;;;;;;1.07;92.31;101863.34;5062603;28;20209;-74
2021/12/20 04:35:37;;;;;;;16.80;4.30;;;;;;;1.04;92.01;101865.09;5066214;28;20232;-73
2021/12/20 04:38:05;;;;;;;23.83;3.90;;;;;;;1.02;91.56;101859.00;5056334;28;20212;-73
2021/12/20 04:40:31;;;;;;;13.40;3.80;;;;;;;1.00;91.83;101859.88;5064939;28;20235;-73
2021/12/20 04:43:00;;;;;;;12.43;3.87;;;;;;;0.97;92.02;101858.13;5070491;28;20219;-73
2021/12/20 04:45:28;;;;;;;21.03;3.93;;;;;;;0.93;91.81;101860.75;5065080;28;20209;-74
2021/12/20 04:47:55;;;;;;;16.57;3.60;;;;;;;0.90;91.73;101860.78;5070476;28;20231;-73
2021/12/20 04:50:22;;;;;;;15.67;3.10;;;;;;;0.87;91.88;101856.44;5059220;28;20247;-73
2021/12/20 04:52:51;;;;;;;18.07;3.30;;;;;;;0.87;92.08;101861.69;5060870;28;20209;-74
2021/12/20 04:55:17;;;;;;;13.03;3.10;;;;;;;0.86;91.66;101867.81;5071165;28;20205;-72
2021/12/20 04:57:48;;;;;;;12.13;3.00;;;;;;;0.80;91.66;101870.44;5067907;28;20211;-73
2021/12/20 05:00:18;;;;;;;12.63;3.20;;;;;;;0.77;91.32;101866.94;5058352;28;20650;-73
2021/12/20 05:02:45;;;;;;;15.13;3.80;;;;;;;0.71;91.37;101867.88;5063353;28;20202;-72
2021/12/20 05:05:13;;;;;;;22.97;3.93;;;;;;;0.66;91.15;101857.38;5061229;28;20215;-73
2021/12/20 05:07:40;;;;;;;14.73;3.30;;;;;;;0.63;91.01;101861.75;5071094;28;20205;-73
2021/12/20 05:10:12;;;;;;;17.60;4.63;;;;;;;0.59;90.91;101860.03;5068778;28;20228;-73
2021/12/20 05:12:39;;;;;;;14.27;2.93;;;;;;;0.54;90.76;101864.41;5071470;28;20562;-74
2021/12/20 05:15:06;;;;;;;14.97;4.10;;;;;;;0.50;90.72;101866.19;5064363;28;20208;-76
2021/12/20 05:17:34;;;;;;;14.60;3.10;;;;;;;0.47;90.93;101863.56;5069303;28;20221;-74
2021/12/20 05:20:01;;;;;;;13.43;3.57;;;;;;;0.45;90.77;101865.31;5067197;28;20243;-73
2021/12/20 05:22:28;;;;;;;14.17;4.30;;;;;;;0.43;90.69;101868.81;5064497;28;20204;-74
2021/12/20 05:24:54;;;;;;;20.47;4.00;;;;;;;0.40;90.74;101866.19;5065641;28;20227;-71
2021/12/20 05:27:22;;;;;;;14.73;3.50;;;;;;;0.35;90.57;101871.47;5065828;28;20201;-75
2021/12/20 05:29:50;;;;;;;18.70;3.47;;;;;;;0.34;90.70;101874.97;5069358;28;20225;-73
2021/12/20 05:32:16;;;;;;;14.33;4.07;;;;;;;0.35;90.91;101876.72;5068190;28;20205;-73
2021/12/20 05:34:43;;;;;;;19.73;3.60;;;;;;;0.36;90.79;101883.66;5070330;28;20223;-74
2021/12/20 05:37:09;;;;;;;18.63;4.40;;;;;;;0.36;90.95;101878.41;5065839;28;20217;-74
2021/12/20 05:39:36;;;;;;;17.17;3.43;;;;;;;0.37;90.88;101885.41;5068693;28;20217;-73
2021/12/20 05:42:03;;;;;;;21.33;5.20;;;;;;;0.38;90.99;101884.53;5068967;28;20211;-72
2021/12/20 05:44:31;;;;;;;14.47;4.07;;;;;;;0.38;90.97;101887.16;5058308;28;20201;-73
2021/12/20 05:46:57;;;;;;;17.40;4.80;;;;;;;0.38;90.89;101894.13;5068578;28;20201;-70
2021/12/20 05:49:24;;;;;;;10.73;3.97;;;;;;;0.36;90.87;101902.00;5069446;28;20229;-74
2021/12/20 05:51:50;;;;;;;14.70;4.70;;;;;;;0.35;91.02;101902.91;5067904;28;20293;-73
2021/12/20 05:54:17;;;;;;;23.17;3.93;;;;;;;0.34;91.06;101903.78;5068736;28;20205;-73
2021/12/20 05:56:43;;;;;;;18.47;4.47;;;;;;;0.33;90.92;101910.78;5070620;28;20316;-73
2021/12/20 05:59:10;;;;;;;14.40;4.90;;;;;;;0.32;91.11;101902.91;5067381;28;20218;-74
2021/12/20 06:01:38;;;;;;;14.37;3.90;;;;;;;0.30;91.02;101905.53;5070149;28;20201;-74
2021/12/20 06:04:05;;;;;;;13.50;3.40;;;;;;;0.30;91.00;101909.91;5070123;28;20200;-74
2021/12/20 06:06:32;;;;;;;20.97;4.17;;;;;;;0.29;90.97;101916.00;5070528;28;20193;-75
2021/12/20 06:08:58;;;;;;;15.40;3.70;;;;;;;0.28;90.94;101915.13;5068939;28;20580;-73
2021/12/20 06:11:25;;;;;;;18.20;4.47;;;;;;;0.26;90.84;101914.25;5064259;28;20582;-74
2021/12/20 06:13:52;;;;;;;19.77;4.93;;;;;;;0.24;90.97;101923.88;5066403;28;20205;-73
2021/12/20 06:16:18;;;;;;;12.43;4.00;;;;;;;0.24;90.89;101923.88;5065864;28;20229;-75
2021/12/20 06:18:46;;;;;;;10.87;4.03;;;;;;;0.22;90.98;101920.38;5067422;28;20690;-74
2021/12/20 06:21:13;;;;;;;10.13;3.77;;;;;;;0.21;90.67;101925.59;5068814;28;20216;-74
2021/12/20 06:23:39;;;;;;;12.60;3.20;;;;;;;0.18;90.81;101918.63;5067286;28;20201;-74
2021/12/20 06:26:06;;;;;;;8.03;3.17;;;;;;;0.17;90.73;101922.16;5064899;28;20606;-74
2021/12/20 06:28:32;;;;;;;13.17;3.47;;;;;;;0.16;90.81;101927.38;5056012;28;20216;-75
2021/12/20 06:30:59;;;;;;;13.57;5.37;;;;;;;0.14;90.94;101930.00;5063390;28;20228;-75
2021/12/20 06:33:25;;;;;;;9.00;3.17;;;;;;;0.12;90.83;101934.34;5061183;28;20209;-72
2021/12/20 06:35:54;;;;;;;13.80;4.60;;;;;;;0.11;91.05;101929.13;5059611;28;20206;-76
2021/12/20 06:38:22;;;;;;;10.27;3.13;;;;;;;0.10;90.65;101930.88;5054718;28;20201;-76
2021/12/20 06:40:49;;;;;;;12.50;3.20;;;;;;;0.09;90.77;101930.84;5052340;28;20304;-75
2021/12/20 06:43:16;;;;;;;8.83;2.90;;;;;;;0.08;90.48;101932.59;5057358;28;20213;-74
2021/12/20 06:45:42;;;;;;;13.57;3.30;;;;;;;0.08;90.55;101931.72;5059511;28;20216;-75
2021/12/20 06:48:09;;;;;;;9.27;2.90;;;;;;;0.06;90.78;101926.50;5063610;28;20198;-75
2021/12/20 06:50:35;;;;;;;12.97;3.07;;;;;;;0.07;90.80;101927.38;5054282;28;20233;-74
2021/12/20 06:53:05;;;;;;;12.07;3.27;;;;;;;0.07;90.59;101924.75;5070110;28;20212;-73
2021/12/20 06:55:32;;;;;;;7.50;2.63;;;;;;;0.07;90.74;101924.75;5067338;28;20211;-74
2021/12/20 06:57:59;;;;;;;11.53;2.93;;;;;;;0.08;90.69;101924.75;5069755;28;20240;-74
2021/12/20 07:00:26;;;;;;;7.77;3.20;;;;;;;0.11;90.86;101924.75;5059905;28;20237;-74
2021/12/20 07:02:53;;;;;;;7.57;2.83;;;;;;;0.12;90.64;101930.88;5055808;28;20297;-74
2021/12/20 07:05:20;;;;;;;11.80;3.30;;;;;;;0.14;90.59;101935.22;5069534;28;20211;-73
2021/12/20 07:07:46;;;;;;;8.57;3.03;;;;;;;0.14;90.26;101931.75;5063239;28;20602;-73
2021/12/20 07:10:14;;;;;;;12.70;3.70;;;;;;;0.14;90.58;101939.59;5062150;28;20599;-74
2021/12/20 07:12:41;;;;;;;13.60;3.33;;;;;;;0.14;90.46;101935.22;5064988;28;20587;-73
2021/12/20 07:15:11;;;;;;;8.90;2.50;;;;;;;0.14;90.50;101935.22;5067938;28;20385;-74
2021/12/20 07:17:38;;;;;;;8.63;2.63;;;;;;;0.15;90.29;101947.47;5064913;28;20320;-74
2021/12/20 07:20:06;;;;;;;8.70;2.23;;;;;;;0.16;90.41;101943.09;5065178;28;20221;-74
2021/12/20 07:22:32;;;;;;;10.93;2.67;;;;;;;0.15;90.32;101944.84;5065481;28;20199;-74
2021/12/20 07:24:59;;;;;;;7.60;2.37;;;;;;;0.16;90.22;101945.72;5056470;28;20674;-74
2021/12/20 07:27:27;;;;;;;7.30;2.60;;;;;;;0.16;89.83;101948.34;5064309;28;20201;-74
2021/12/20 07:29:54;;;;;;;7.00;2.57;;;;;;;0.15;89.85;101959.69;5063966;28;20232;-74
2021/12/20 07:32:21;;;;;;;12.90;3.60;;;;;;;0.15;89.40;101962.31;5064191;28;20690;-74
2021/12/20 07:34:47;;;;;;;9.23;3.00;;;;;;;0.13;89.36;101964.03;5062959;28;20224;-73
2021/12/20 07:37:14;;;;;;;9.73;2.93;;;;;;;0.09;89.16;101959.66;5065462;28;20229;-74
2021/12/20 07:39:40;;;;;;;6.77;2.73;;;;;;;0.07;88.98;101966.66;5065535;28;20727;-72
2021/12/20 07:42:08;;;;;;;10.73;3.63;;;;;;;0.05;88.85;101968.41;5059540;28;20220;-73
2021/12/20 07:44:36;;;;;;;10.90;3.77;;;;;;;0.03;88.55;101963.16;5064019;28;20205;-74
2021/12/20 07:47:03;;;;;;;9.07;3.07;;;;;;;0.00;88.54;101969.25;5062720;28;20196;-73
2021/12/20 07:49:30;;;;;;;10.60;3.60;;;;;;;0.00;88.38;101969.25;5064770;28;21595;-73
2021/12/20 07:51:57;;;;;;;6.80;2.97;;;;;;;0.00;88.41;101974.50;5068693;28;20205;-74
2021/12/20 07:54:23;;;;;;;9.80;2.87;;;;;;;-0.01;88.21;101972.78;5070211;28;20688;-72
2021/12/20 07:56:50;;;;;;;8.20;3.00;;;;;;;-0.01;88.18;101969.28;5071685;28;20227;-74
2021/12/20 07:59:17;;;;;;;6.87;2.47;;;;;;;-0.01;88.06;101975.41;5071066;28;20224;-74
2021/12/20 08:01:45;;;;;;;6.80;2.87;;;;;;;-0.02;87.85;101973.66;5067988;28;20203;-74
2021/12/20 08:04:11;;;;;;;7.77;2.27;;;;;;;-0.02;87.90;101976.25;5061723;28;20212;-74
2021/12/20 08:06:38;;;;;;;7.40;2.50;;;;;;;-0.03;87.65;101976.25;5070238;28;20237;-74
2021/12/20 08:09:05;;;;;;;3.03;2.07;;;;;;;-0.03;87.32;101982.38;5067320;28;20221;-74
2021/12/20 08:11:33;;;;;;;8.70;4.00;;;;;;;-0.03;87.27;101974.53;5069159;28;20211;-74
2021/12/20 08:13:59;;;;;;;8.03;2.93;;;;;;;-0.02;87.33;101988.50;5067762;28;20263;-73
2021/12/20 08:16:26;;;;;;;13.63;3.70;;;;;;;-0.02;87.36;101981.50;5066163;28;20575;-74
2021/12/20 08:18:54;;;;;;;8.07;3.63;;;;;;;-0.01;87.28;101974.53;5065716;28;20205;-74
2021/12/20 08:21:21;;;;;;;10.03;3.00;;;;;;;0.02;87.07;101976.25;5068932;28;20570;-73
2021/12/20 08:23:48;;;;;;;8.60;4.37;;;;;;;0.02;87.04;101977.13;5068804;28;20205;-74
2021/12/20 08:26:14;;;;;;;8.37;3.87;;;;;;;0.02;86.99;101976.25;5069691;28;20209;-74
2021/12/20 08:28:41;;;;;;;11.00;4.10;;;;;;;0.02;86.66;101986.72;5070419;28;20197;-74
2021/12/20 08:31:09;;;;;;;8.30;4.20;;;;;;;0.04;86.82;101983.22;5065664;28;20224;-74
2021/12/20 08:33:37;;;;;;;11.57;5.63;;;;;;;0.06;86.86;101988.47;5069954;28;20200;-73
2021/12/20 08:36:09;;;;;;;13.37;6.70;;;;;;;0.07;86.78;101985.88;5067348;28;20203;-73
2021/12/20 08:38:36;;;;;;;31.63;19.00;;;;;;;0.10;86.56;101995.47;5066965;28;20872;-74
2021/12/20 08:41:02;;;;;;;8.23;4.20;;;;;;;0.11;86.52;101987.63;5070230;28;20228;-74
2021/12/20 08:43:29;;;;;;;4.97;2.27;;;;;;;0.12;86.38;101986.75;5066630;28;20694;-74
2021/12/20 08:45:59;;;;;;;4.83;2.30;;;;;;;0.15;86.37;101991.13;5068053;28;20302;-74
2021/12/20 08:48:25;;;;;;;6.10;2.17;;;;;;;0.17;86.01;101999.84;5063961;28;20224;-73
2021/12/20 08:50:52;;;;;;;5.40;2.20;;;;;;;0.18;85.87;101999.84;5070954;28;20248;-74
2021/12/20 08:53:20;;;;;;;7.17;2.53;;;;;;;0.21;86.18;102004.19;5068077;28;20201;-74
2021/12/20 08:55:47;;;;;;;9.03;2.70;;;;;;;0.24;85.84;102001.59;5065620;28;20205;-73
2021/12/20 08:58:13;;;;;;;6.93;3.07;;;;;;;0.25;85.70;102000.72;5069808;28;20227;-75
2021/12/20 09:00:40;;;;;;;6.13;2.53;;;;;;;0.28;85.53;102003.34;5064700;28;20226;-74
2021/12/20 09:03:07;;;;;;;5.70;2.53;;;;;;;0.32;85.60;102010.34;5066160;28;20196;-74
2021/12/20 09:05:35;;;;;;;8.33;3.10;;;;;;;0.33;85.36;102014.72;5069167;28;20672;-74
2021/12/20 09:08:04;;;;;;;6.40;2.50;;;;;;;0.36;85.13;102022.56;5070509;28;20197;-74
2021/12/20 09:10:34;;;;;;;5.97;2.50;;;;;;;0.37;85.16;102016.44;5070525;28;20247;-74
2021/12/20 09:13:02;;;;;;;7.10;2.17;;;;;;;0.40;84.94;102021.69;5067835;28;20209;-74
2021/12/20 09:15:28;;;;;;;6.63;2.07;;;;;;;0.42;84.63;102022.56;5065610;28;20202;-75
2021/12/20 09:17:55;;;;;;;6.33;2.50;;;;;;;0.45;84.50;102029.56;5070271;28;20221;-74
2021/12/20 09:20:24;;;;;;;4.90;1.97;;;;;;;0.47;84.50;102033.94;5065660;28;20228;-74
2021/12/20 09:22:52;;;;;;;5.80;2.63;;;;;;;0.50;84.26;102022.56;5064087;28;20204;-75
2021/12/20 09:25:21;;;;;;;7.73;2.40;;;;;;;0.53;84.02;102027.81;5065366;28;20234;-75
2021/12/20 09:27:50;;;;;;;5.60;2.30;;;;;;;0.55;84.26;102026.91;5070571;28;20426;-75
2021/12/20 09:30:18;;;;;;;5.87;3.10;;;;;;;0.58;83.87;102032.16;5067482;28;20233;-75
2021/12/20 09:32:44;;;;;;;6.47;2.37;;;;;;;0.62;83.85;102022.56;5063120;28;20209;-73
2021/12/20 09:35:11;;;;;;;6.63;2.67;;;;;;;0.65;83.60;102027.81;5070884;28;20215;-75
2021/12/20 09:37:38;;;;;;;4.47;2.50;;;;;;;0.70;83.51;102026.06;5067879;28;20243;-75
2021/12/20 09:40:06;;;;;;;8.90;2.40;;;;;;;0.75;83.37;102026.03;5070777;28;20343;-75
2021/12/20 09:42:34;;;;;;;9.83;3.00;;;;;;;0.80;83.53;102033.03;5067306;28;20213;-75
2021/12/20 09:45:03;;;;;;;4.57;2.20;;;;;;;0.85;83.25;102031.28;5067504;28;20657;-75
2021/12/20 09:47:32;;;;;;;10.20;3.90;;;;;;;0.90;82.86;102028.63;5064159;28;20197;-75
2021/12/20 09:50:01;;;;;;;6.50;3.27;;;;;;;0.93;82.87;102016.41;5066286;28;20701;-75
2021/12/20 09:52:28;;;;;;;8.47;3.30;;;;;;;1.01;82.92;102021.63;5065971;28;20224;-75
2021/12/20 09:54:54;;;;;;;5.87;2.67;;;;;;;1.05;82.73;102018.13;5075879;22;20233;-71
2021/12/20 09:57:22;;;;;;;7.57;2.47;;;;;;;1.10;82.04;102021.59;5043957;28;20229;-72
2021/12/20 09:59:51;;;;;;;8.10;3.33;;;;;;;1.14;81.98;102010.22;5044456;28;20581;-72
2021/12/20 10:02:21;;;;;;;6.00;2.93;;;;;;;1.19;82.08;102018.09;5045085;28;20210;-70
2021/12/20 10:04:48;;;;;;;6.80;2.67;;;;;;;1.23;82.13;102011.97;5036397;28;20237;-72
2021/12/20 10:07:18;;;;;;;8.60;3.03;;;;;;;1.29;81.57;102011.91;5044048;28;20198;-73
2021/12/20 10:09:47;;;;;;;7.53;3.10;;;;;;;1.33;81.53;102008.41;5040602;28;20733;-73
2021/12/20 10:12:21;;;;;;;8.47;4.00;;;;;;;1.36;81.65;102013.66;5039367;28;20296;-73
2021/12/20 10:14:53;;;;;;;6.03;3.37;;;;;;;1.38;81.01;102011.91;5037555;28;20221;-73
2021/12/20 10:17:22;;;;;;;9.10;3.37;;;;;;;1.39;81.43;102014.53;5039575;28;20222;-73
2021/12/20 10:19:50;;;;;;;6.20;3.33;;;;;;;1.42;80.85;102015.41;5038481;28;20203;-74
2021/12/20 10:22:25;;;;;;;7.37;3.47;;;;;;;1.43;81.24;102020.63;5039942;28;20210;-73
2021/12/20 10:24:53;;;;;;;8.23;3.80;;;;;;;1.43;80.72;102015.41;5041253;28;20221;-73
2021/12/20 10:27:34;;;;;;;9.60;5.27;;;;;;;1.47;80.63;102021.47;5043956;28;20198;-73
2021/12/20 10:30:19;;;;;;;12.30;7.70;;;;;;;1.50;80.63;102021.47;5045410;28;20216;-73
2021/12/20 10:32:47;;;;;;;13.17;6.90;;;;;;;1.52;80.66;102024.97;5041100;28;20206;-73
2021/12/20 10:35:30;;;;;;;10.27;6.10;;;;;;;1.54;81.17;102024.09;5038698;28;20226;-72
2021/12/20 10:38:00;;;;;;;11.27;5.73;;;;;;;1.57;81.01;102033.69;5040842;28;20249;-73
2021/12/20 10:40:27;;;;;;;6.40;3.90;;;;;;;1.58;80.68;102031.06;5041484;28;20472;-73
2021/12/20 10:42:56;;;;;;;6.40;4.93;;;;;;;1.61;80.90;102032.81;5042321;28;20655;-73
2021/12/20 10:45:23;;;;;;;10.13;5.30;;;;;;;1.64;81.28;102031.03;5043769;28;20217;-74
2021/12/20 10:47:51;;;;;;;10.23;5.27;;;;;;;1.67;81.09;102038.91;5038922;28;20210;-73
2021/12/20 10:50:29;;;;;;;9.37;6.13;;;;;;;1.69;80.98;102028.38;5042973;28;20213;-73
2021/12/20 10:53:13;;;;;;;10.97;6.03;;;;;;;1.71;81.61;102029.25;5040163;28;20595;-74
2021/12/20 10:55:42;;;;;;;7.97;4.17;;;;;;;1.74;81.16;102024.00;5044553;28;20233;-74
2021/12/20 10:58:28;;;;;;;7.77;3.30;;;;;;;1.76;81.55;102024.84;5043234;28;20773;-73
2021/12/20 11:01:14;;;;;;;7.50;3.30;;;;;;;1.80;81.37;102028.31;5039442;28;20510;-73
2021/12/20 11:03:43;;;;;;;10.57;5.93;;;;;;;1.80;81.19;102026.56;5034802;28;20300;-73
2021/12/20 11:06:24;;;;;;;8.53;3.37;;;;;;;1.83;81.08;102028.31;5042069;28;20229;-73
2021/12/20 11:09:05;;;;;;;8.10;3.77;;;;;;;1.85;81.81;102035.31;5039521;28;20218;-73
2021/12/20 11:11:33;;;;;;;10.93;4.63;;;;;;;1.87;81.74;102023.03;5040824;28;20201;-73
2021/12/20 11:14:00;;;;;;;10.87;5.27;;;;;;;1.89;81.62;102026.53;5042510;28;20229;-71
2021/12/20 11:16:29;;;;;;;7.90;4.17;;;;;;;1.92;81.73;102029.16;5042021;28;20566;-74
2021/12/20 11:19:24;;;;;;;10.97;3.43;;;;;;;1.93;81.16;102025.63;5039461;28;20719;-73
2021/12/20 11:22:05;;;;;;;6.53;3.20;;;;;;;1.95;81.50;102016.00;5029575;28;20209;-73
2021/12/20 11:24:34;;;;;;;5.97;2.90;;;;;;;1.98;81.80;102021.19;5043971;28;20892;-74
2021/12/20 11:27:03;;;;;;;8.33;2.47;;;;;;;2.00;81.65;102022.06;5043087;28;20209;-73
2021/12/20 11:29:31;;;;;;;6.10;2.53;;;;;;;2.04;81.79;102025.56;5043213;28;20208;-73
2021/12/20 11:31:58;;;;;;;9.77;2.53;;;;;;;2.06;81.04;102022.03;5045336;28;20217;-73
2021/12/20 11:34:26;;;;;;;5.33;2.20;;;;;;;2.08;80.75;102025.53;5044922;28;20217;-74
2021/12/20 11:36:54;;;;;;;7.40;2.27;;;;;;;2.08;81.38;102017.66;5042805;28;20209;-73
2021/12/20 11:39:20;;;;;;;6.67;2.47;;;;;;;2.10;81.05;102020.28;5042511;28;20225;-74
2021/12/20 11:41:47;;;;;;;8.30;3.07;;;;;;;2.11;80.46;102018.53;5038591;28;20202;-74
2021/12/20 11:44:19;;;;;;;8.67;2.60;;;;;;;2.12;80.55;102013.25;5040599;28;20202;-74